createdAt,value
2022-10-15T00:00:07.235Z,25.73
2022-10-15T00:00:39.865Z,17.38
2022-10-15T00:01:15.379Z,36.30
2022-10-15T00:01:47.331Z,25.38
2022-10-15T00:02:19.502Z,29.67
2022-10-15T00:02:51.439Z,31.98
2022-10-15T00:03:23.234Z,41.00
2022-10-15T00:03:55.273Z,69.03
2022-10-15T00:04:27.164Z,59.88
2022-10-15T00:04:59.157Z,53.22
2022-10-15T00:05:31.030Z,39.78
2022-10-15T00:06:10.239Z,62.47
2022-10-15T00:10:51.128Z,16.88
2022-10-15T00:11:26.114Z,9.88
2022-10-15T00:11:57.899Z,21.38
2022-10-15T00:12:29.601Z,22.33
2022-10-15T00:13:34.061Z,14.27
2022-10-15T00:14:05.810Z,18.70
2022-10-15T00:14:37.585Z,29.15
2022-10-15T00:15:10.853Z,18.75
2022-10-15T00:15:42.673Z,34.53
2022-10-15T00:16:20.053Z,25.35
2022-10-15T00:16:51.879Z,13.88
2022-10-15T00:17:23.812Z,14.98
2022-10-15T00:17:56.111Z,9.98
2022-10-15T00:18:28.042Z,12.02
2022-10-15T00:19:00.288Z,12.95
2022-10-15T00:19:32.160Z,22.88
2022-10-15T00:20:05.996Z,65.93
2022-10-15T00:20:41.848Z,39.22
2022-10-15T00:21:15.590Z,17.90
2022-10-15T00:21:47.502Z,16.63
2022-10-15T00:22:19.566Z,14.95
2022-10-15T00:22:51.460Z,27.83
2022-10-15T00:23:23.526Z,25.02
2022-10-15T00:23:55.482Z,44.45
2022-10-15T00:24:27.656Z,107.95
2022-10-15T00:25:00.550Z,8.32
2022-10-15T00:25:32.243Z,16.75
2022-10-15T00:26:06.824Z,13.68
2022-10-15T00:26:38.677Z,15.02
2022-10-15T00:27:10.486Z,8.70
2022-10-15T00:27:42.335Z,47.95
2022-10-15T00:28:14.209Z,12.02
2022-10-15T00:28:46.562Z,38.60
2022-10-15T00:29:18.635Z,14.05
2022-10-15T00:29:50.397Z,13.00
2022-10-15T00:30:22.241Z,15.68
2022-10-15T00:31:01.149Z,56.92
2022-10-15T00:31:33.402Z,47.92
2022-10-15T00:32:05.407Z,43.25
2022-10-15T00:32:37.343Z,17.48
2022-10-15T00:33:11.218Z,18.20
2022-10-15T00:33:44.132Z,23.17
2022-10-15T00:34:17.073Z,19.55
2022-10-15T00:34:48.957Z,8.73
2022-10-15T00:35:20.763Z,16.08
2022-10-15T00:36:03.321Z,21.27
2022-10-15T00:36:36.952Z,17.90
2022-10-15T00:37:09.279Z,13.75
2022-10-15T00:37:41.440Z,11.00
2022-10-15T00:38:13.566Z,18.50
2022-10-15T00:38:46.032Z,13.07
2022-10-15T00:39:18.724Z,12.55
2022-10-15T00:39:51.355Z,18.38
2022-10-15T00:40:23.509Z,14.00
2022-10-15T00:40:55.940Z,16.02
2022-10-15T00:41:31.598Z,16.23
2022-10-15T00:42:03.584Z,16.92
2022-10-15T00:42:35.441Z,13.98
2022-10-15T00:43:10.989Z,17.17
2022-10-15T00:43:51.643Z,29.67
2022-10-15T00:44:26.819Z,22.67
2022-10-15T00:44:59.696Z,36.17
2022-10-15T00:45:31.551Z,28.40
2022-10-15T00:46:04.288Z,23.70
2022-10-15T00:46:41.194Z,26.13
2022-10-15T00:47:21.325Z,26.60
2022-10-15T00:47:53.391Z,28.67
2022-10-15T00:48:25.517Z,22.23
2022-10-15T00:49:08.636Z,34.72
2022-10-15T00:49:56.280Z,34.35
2022-10-15T00:50:28.241Z,28.63
2022-10-15T00:51:04.925Z,28.70
2022-10-15T00:51:41.610Z,34.55
2022-10-15T00:52:45.493Z,26.80
2022-10-15T00:53:17.499Z,26.13
2022-10-15T00:53:50.675Z,30.80
2022-10-15T00:54:24.094Z,34.00
2022-10-15T00:55:00.525Z,33.78
2022-10-15T00:55:37.493Z,48.53
2022-10-15T00:56:09.584Z,26.85
2022-10-15T00:56:44.208Z,28.88
2022-10-15T00:57:16.370Z,38.22
2022-10-15T00:57:49.958Z,26.58
2022-10-15T00:58:28.064Z,23.50
2022-10-15T00:59:00.855Z,31.75
2022-10-15T00:59:34.954Z,24.50
2022-10-15T01:00:10.514Z,32.00
2022-10-15T01:00:44.551Z,27.13
2022-10-15T01:01:16.838Z,32.47
2022-10-15T01:01:48.942Z,20.85
2022-10-15T01:02:21.842Z,35.95
2022-10-15T01:02:54.842Z,35.08
2022-10-15T01:03:26.754Z,16.77
2022-10-15T01:03:59.010Z,32.92
2022-10-15T01:04:31.511Z,37.20
2022-10-15T01:05:04.426Z,26.48
2022-10-15T01:05:37.683Z,38.33
2022-10-15T01:06:09.552Z,28.20
2022-10-15T01:06:41.377Z,30.13
2022-10-15T01:07:14.279Z,41.42
2022-10-15T01:07:46.230Z,46.42
2022-10-15T01:11:50.273Z,22.77
2022-10-15T01:12:40.339Z,25.50
2022-10-15T01:13:39.848Z,20.05
2022-10-15T01:14:44.887Z,27.13
2022-10-15T01:15:21.224Z,21.08
2022-10-15T01:16:00.730Z,21.35
2022-10-15T01:16:53.957Z,21.80
2022-10-15T01:17:47.953Z,20.15
2022-10-15T01:18:32.949Z,24.20
2022-10-15T01:19:11.995Z,23.23
2022-10-15T01:20:03.984Z,21.20
2022-10-15T01:20:51.544Z,21.95
2022-10-15T01:21:33.837Z,25.48
2022-10-15T01:22:10.598Z,30.88
2022-10-15T01:23:07.453Z,38.17
2022-10-15T01:23:46.852Z,60.60
2022-10-15T01:24:36.756Z,22.73
2022-10-15T01:25:23.952Z,23.38
2022-10-15T01:26:25.889Z,21.42
2022-10-15T01:27:54.275Z,22.70
2022-10-15T01:28:43.265Z,25.02
2022-10-15T01:29:42.491Z,26.85
2022-10-15T01:30:32.610Z,23.00
2022-10-15T01:31:16.243Z,24.08
2022-10-15T01:32:04.112Z,24.00
2022-10-15T01:32:55.866Z,25.40
2022-10-15T01:33:45.528Z,22.10
2022-10-15T01:34:27.491Z,24.38
2022-10-15T01:35:14.036Z,22.55
2022-10-15T01:35:49.141Z,21.67
2022-10-15T01:40:34.830Z,33.97
2022-10-15T01:41:10.808Z,38.17
2022-10-15T01:41:49.399Z,23.13
2022-10-15T01:42:33.512Z,61.28
2022-10-15T01:43:13.561Z,46.88
2022-10-15T01:44:05.525Z,53.30
2022-10-15T01:44:54.936Z,21.65
2022-10-15T01:45:51.992Z,41.25
2022-10-15T01:46:51.237Z,39.45
2022-10-15T01:47:36.235Z,38.15
2022-10-15T01:48:10.793Z,76.47
2022-10-15T01:48:43.196Z,31.73
2022-10-15T01:49:21.443Z,40.78
2022-10-15T01:49:54.250Z,79.80
2022-10-15T01:50:27.964Z,26.05
2022-10-15T01:51:04.476Z,47.00
2022-10-15T01:51:38.419Z,50.13
2022-10-15T01:52:15.376Z,25.98
2022-10-15T01:52:48.284Z,29.10
2022-10-15T01:53:26.795Z,33.10
2022-10-15T01:53:59.864Z,36.58
2022-10-15T01:54:31.691Z,28.60
2022-10-15T01:55:06.363Z,30.20
2022-10-15T01:55:42.728Z,27.88
2022-10-15T01:56:19.398Z,28.55
2022-10-15T01:56:52.091Z,50.53
2022-10-15T01:57:28.045Z,20.25
2022-10-15T01:58:00.887Z,34.55
2022-10-15T01:58:33.207Z,27.27
2022-10-15T01:59:05.697Z,19.17
2022-10-15T01:59:37.673Z,26.45
2022-10-15T02:00:09.893Z,25.13
2022-10-15T02:05:03.671Z,22.20
2022-10-15T02:05:49.001Z,25.13
2022-10-15T02:06:34.828Z,23.42
2022-10-15T02:07:07.561Z,21.17
2022-10-15T02:07:58.052Z,20.55
2022-10-15T02:08:56.519Z,26.15
2022-10-15T02:09:50.366Z,25.13
2022-10-15T02:10:42.262Z,24.00
2022-10-15T02:11:15.814Z,27.38
2022-10-15T02:12:06.026Z,41.10
2022-10-15T02:12:48.356Z,19.05
2022-10-15T02:13:29.004Z,19.60
2022-10-15T02:14:10.923Z,39.80
2022-10-15T02:15:08.104Z,20.05
2022-10-15T02:15:56.528Z,16.88
2022-10-15T02:16:39.894Z,19.60
2022-10-15T02:17:12.046Z,23.45
2022-10-15T02:17:48.349Z,19.33
2022-10-15T02:18:30.154Z,22.70
2022-10-15T02:19:19.088Z,18.05
2022-10-15T02:20:02.048Z,21.38
2022-10-15T02:20:54.412Z,18.25
2022-10-15T02:21:55.426Z,19.40
2022-10-15T02:22:32.916Z,25.83
2022-10-15T02:23:11.285Z,17.17
2022-10-15T02:24:09.285Z,16.50
2022-10-15T02:24:54.685Z,16.13
2022-10-15T02:25:28.511Z,19.77
2022-10-15T02:26:00.402Z,14.93
2022-10-15T02:26:33.956Z,19.27
2022-10-15T02:27:06.607Z,19.27
2022-10-15T02:27:41.696Z,18.77
2022-10-15T02:28:15.201Z,18.67
2022-10-15T02:28:52.889Z,17.50
2022-10-15T02:29:27.808Z,19.92
2022-10-15T02:30:02.206Z,18.15
2022-10-15T02:33:59.620Z,17.85
2022-10-15T02:34:32.984Z,16.20
2022-10-15T02:35:07.378Z,15.43
2022-10-15T02:35:43.494Z,19.10
2022-10-15T02:36:15.475Z,43.08
2022-10-15T02:36:47.832Z,16.85
2022-10-15T02:37:21.669Z,18.77
2022-10-15T02:37:55.115Z,20.30
2022-10-15T02:38:28.152Z,18.60
2022-10-15T02:39:01.410Z,19.25
2022-10-15T02:39:34.122Z,17.10
2022-10-15T02:40:06.223Z,18.05
2022-10-15T02:40:39.026Z,15.80
2022-10-15T02:41:12.151Z,18.85
2022-10-15T02:41:44.229Z,22.17
2022-10-15T02:42:18.455Z,16.75
2022-10-15T02:42:52.972Z,18.55
2022-10-15T02:43:25.043Z,15.60
2022-10-15T02:43:56.845Z,17.88
2022-10-15T02:44:28.955Z,17.65
2022-10-15T02:45:00.748Z,18.02
2022-10-15T02:45:32.703Z,14.50
2022-10-15T02:46:05.891Z,17.90
2022-10-15T02:46:37.605Z,19.52
2022-10-15T02:47:10.415Z,18.38
2022-10-15T02:47:44.077Z,19.63
2022-10-15T02:48:15.938Z,17.63
2022-10-15T02:48:47.703Z,22.83
2022-10-15T02:49:22.670Z,21.58
2022-10-15T02:49:55.455Z,17.02
2022-10-15T02:50:27.279Z,19.27
2022-10-15T02:50:59.078Z,17.88
2022-10-15T02:51:35.208Z,19.83
2022-10-15T02:52:07.056Z,18.70
2022-10-15T02:52:38.904Z,20.23
2022-10-15T02:53:10.657Z,20.35
2022-10-15T02:53:43.556Z,19.63
2022-10-15T02:54:15.176Z,17.75
2022-10-15T02:54:47.002Z,23.08
2022-10-15T02:55:18.880Z,21.70
2022-10-15T02:55:50.666Z,20.48
2022-10-15T02:56:22.872Z,19.45
2022-10-15T02:56:54.587Z,19.70
2022-10-15T02:57:26.652Z,20.67
2022-10-15T02:57:58.619Z,19.92
2022-10-15T02:58:30.990Z,20.80
2022-10-15T02:59:03.391Z,20.20
2022-10-15T02:59:35.756Z,24.17
2022-10-15T03:00:08.281Z,20.42
2022-10-15T03:00:40.508Z,21.33
2022-10-15T03:01:12.934Z,22.45
2022-10-15T03:01:44.884Z,19.08
2022-10-15T03:02:19.346Z,21.35
2022-10-15T03:02:52.117Z,27.45
2022-10-15T03:03:24.685Z,24.00
2022-10-15T03:03:57.603Z,21.38
2022-10-15T03:04:30.251Z,20.75
2022-10-15T03:05:03.407Z,25.30
2022-10-15T03:05:35.680Z,20.15
2022-10-15T03:06:07.616Z,19.02
2022-10-15T03:06:39.416Z,20.75
2022-10-15T03:07:11.498Z,20.55
2022-10-15T03:07:43.774Z,26.27
2022-10-15T03:08:15.642Z,19.33
2022-10-15T03:08:47.356Z,19.50
2022-10-15T03:09:19.249Z,19.02
2022-10-15T03:09:52.115Z,22.38
2022-10-15T03:10:23.977Z,22.65
2022-10-15T03:10:55.617Z,23.75
2022-10-15T03:11:27.244Z,21.90
2022-10-15T03:11:58.928Z,21.35
2022-10-15T03:12:31.165Z,22.02
2022-10-15T03:13:04.639Z,22.40
2022-10-15T03:13:39.644Z,20.75
2022-10-15T03:14:11.311Z,19.23
2022-10-15T03:14:43.613Z,23.70
2022-10-15T03:15:15.573Z,24.48
2022-10-15T03:15:49.649Z,20.85
2022-10-15T03:16:21.525Z,22.95
2022-10-15T03:16:53.318Z,23.33
2022-10-15T03:17:25.334Z,21.38
2022-10-15T03:17:57.285Z,24.67
2022-10-15T03:18:28.990Z,25.35
2022-10-15T03:19:00.698Z,29.15
2022-10-15T03:19:32.830Z,21.38
2022-10-15T03:20:05.327Z,24.25
2022-10-15T03:20:40.904Z,24.23
2022-10-15T03:24:38.551Z,17.70
2022-10-15T03:25:10.652Z,19.23
2022-10-15T03:25:42.977Z,25.95
2022-10-15T03:26:22.290Z,18.88
2022-10-15T03:26:55.239Z,22.10
2022-10-15T03:27:27.458Z,22.70
2022-10-15T03:27:59.208Z,27.33
2022-10-15T03:28:39.234Z,24.17
2022-10-15T03:29:11.281Z,31.48
2022-10-15T03:29:48.718Z,27.52
2022-10-15T03:30:20.469Z,25.77
2022-10-15T03:30:52.369Z,25.08
2022-10-15T03:31:24.212Z,27.98
2022-10-15T03:31:56.162Z,26.02
2022-10-15T03:32:27.996Z,26.02
2022-10-15T03:32:59.644Z,27.00
2022-10-15T03:33:31.879Z,26.58
2022-10-15T03:34:03.880Z,23.63
2022-10-15T03:34:35.917Z,21.80
2022-10-15T03:35:08.052Z,23.23
2022-10-15T03:35:40.069Z,23.80
2022-10-15T03:36:12.702Z,22.27
2022-10-15T03:36:44.368Z,30.25
2022-10-15T03:37:16.908Z,27.77
2022-10-15T03:37:48.787Z,25.30
2022-10-15T03:38:21.238Z,25.65
2022-10-15T03:38:55.305Z,24.05
2022-10-15T03:39:28.154Z,23.42
2022-10-15T03:40:04.841Z,23.83
2022-10-15T03:40:36.767Z,23.27
2022-10-15T03:41:24.297Z,25.42
2022-10-15T03:41:56.376Z,27.52
2022-10-15T03:42:36.138Z,24.40
2022-10-15T03:43:09.114Z,26.60
2022-10-15T03:43:42.890Z,26.85
2022-10-15T03:44:15.503Z,26.63
2022-10-15T03:44:50.488Z,27.95
2022-10-15T03:45:24.989Z,23.05
2022-10-15T03:46:09.724Z,23.13
2022-10-15T03:50:29.473Z,22.83
2022-10-15T03:51:05.265Z,19.60
2022-10-15T03:51:37.124Z,21.77
2022-10-15T03:52:14.832Z,25.45
2022-10-15T03:57:01.623Z,22.80
2022-10-15T03:57:38.772Z,22.80
2022-10-15T03:58:10.957Z,24.77
2022-10-15T03:58:50.507Z,27.98
2022-10-15T03:59:22.450Z,18.58
2022-10-15T04:00:01.625Z,18.65
2022-10-15T04:00:45.125Z,18.95
2022-10-15T04:01:17.896Z,23.42
2022-10-15T04:01:49.620Z,30.73
2022-10-15T04:02:22.914Z,25.98
2022-10-15T04:02:54.880Z,17.77
2022-10-15T04:03:30.692Z,23.35
2022-10-15T04:04:04.469Z,23.67
2022-10-15T04:04:36.314Z,19.42
2022-10-15T04:05:08.184Z,24.67
2022-10-15T04:05:40.409Z,23.45
2022-10-15T04:06:14.998Z,54.30
2022-10-15T04:06:47.934Z,24.08
2022-10-15T04:07:21.610Z,22.77
2022-10-15T04:07:53.335Z,25.23
2022-10-15T04:08:26.258Z,17.13
2022-10-15T04:08:57.972Z,18.65
2022-10-15T04:09:30.441Z,20.10
2022-10-15T04:10:22.218Z,19.75
2022-10-15T04:10:54.552Z,18.67
2022-10-15T04:11:26.228Z,21.58
2022-10-15T04:12:06.426Z,15.80
2022-10-15T04:16:00.720Z,31.83
2022-10-15T04:16:33.433Z,19.02
2022-10-15T04:17:12.284Z,18.30
2022-10-15T04:17:44.246Z,22.90
2022-10-15T04:18:16.848Z,15.65
2022-10-15T04:18:49.308Z,22.77
2022-10-15T04:19:20.899Z,21.30
2022-10-15T04:20:03.203Z,18.05
2022-10-15T04:20:34.796Z,18.48
2022-10-15T04:21:16.536Z,19.10
2022-10-15T04:21:52.979Z,24.10
2022-10-15T04:22:43.769Z,42.05
2022-10-15T04:23:16.688Z,89.57
2022-10-15T04:24:03.363Z,47.25
2022-10-15T04:24:40.332Z,16.63
2022-10-15T04:25:12.181Z,17.13
2022-10-15T04:25:44.345Z,16.67
2022-10-15T04:26:16.276Z,16.45
2022-10-15T04:26:47.931Z,16.10
2022-10-15T04:27:19.599Z,17.25
2022-10-15T04:27:53.607Z,19.20
2022-10-15T04:28:25.317Z,19.10
2022-10-15T04:28:57.116Z,19.73
2022-10-15T04:29:29.077Z,17.65
2022-10-15T04:30:14.052Z,15.80
2022-10-15T04:30:58.074Z,15.45
2022-10-15T04:31:29.947Z,18.10
2022-10-15T04:32:02.523Z,20.70
2022-10-15T04:32:34.247Z,15.52
2022-10-15T04:33:05.857Z,16.63
2022-10-15T04:33:37.763Z,27.45
2022-10-15T04:34:09.575Z,17.77
2022-10-15T04:34:41.720Z,18.02
2022-10-15T04:35:14.074Z,16.38
2022-10-15T04:36:05.758Z,46.28
2022-10-15T04:37:03.481Z,15.45
2022-10-15T04:37:35.552Z,47.90
2022-10-15T04:38:07.186Z,16.17
2022-10-15T04:39:08.573Z,14.63
2022-10-15T04:39:47.494Z,16.40
2022-10-15T04:40:19.506Z,13.50
2022-10-15T04:41:00.511Z,21.40
2022-10-15T04:41:36.483Z,16.67
2022-10-15T04:42:11.863Z,15.85
2022-10-15T04:42:43.512Z,18.13
2022-10-15T04:43:15.358Z,14.77
2022-10-15T04:43:47.234Z,18.42
2022-10-15T04:44:19.055Z,16.42
2022-10-15T04:44:57.932Z,16.45
2022-10-15T04:45:29.503Z,17.17
2022-10-15T04:46:03.842Z,15.70
2022-10-15T04:46:35.587Z,18.77
2022-10-15T04:47:15.360Z,18.48
2022-10-15T04:47:54.848Z,20.48
2022-10-15T04:48:31.342Z,21.30
2022-10-15T04:49:03.384Z,16.52
2022-10-15T04:49:35.007Z,24.25
2022-10-15T04:50:12.824Z,15.15
2022-10-15T04:54:34.680Z,14.02
2022-10-15T04:55:09.083Z,17.70
2022-10-15T04:59:21.655Z,14.13
2022-10-15T05:00:22.356Z,17.95
2022-10-15T05:01:30.844Z,21.25
2022-10-15T05:02:11.605Z,23.92
2022-10-15T05:06:05.918Z,23.40
2022-10-15T05:06:38.178Z,24.05
2022-10-15T05:07:21.165Z,26.30
2022-10-15T05:07:54.068Z,24.35
2022-10-15T05:08:26.349Z,21.38
2022-10-15T05:09:20.985Z,21.65
2022-10-15T05:09:55.019Z,23.52
2022-10-15T05:10:26.853Z,24.15
2022-10-15T05:11:06.181Z,27.10
2022-10-15T05:11:38.301Z,21.55
2022-10-15T05:12:16.045Z,27.42
2022-10-15T05:12:49.385Z,26.08
2022-10-15T05:13:32.275Z,24.58
2022-10-15T05:17:25.019Z,27.70
2022-10-15T05:17:59.058Z,31.90
2022-10-15T05:18:39.140Z,23.13
2022-10-15T05:19:11.173Z,26.17
2022-10-15T05:19:43.869Z,30.25
2022-10-15T05:20:22.434Z,23.05
2022-10-15T05:20:54.125Z,24.45
2022-10-15T05:21:27.415Z,29.15
2022-10-15T05:26:26.114Z,33.03
2022-10-15T05:26:57.944Z,27.77
2022-10-15T05:27:32.007Z,32.50
2022-10-15T05:28:05.235Z,28.30
2022-10-15T05:28:37.370Z,34.47
2022-10-15T05:29:09.604Z,27.58
2022-10-15T05:29:41.457Z,29.98
2022-10-15T05:30:14.730Z,29.05
2022-10-15T05:30:52.757Z,30.70
2022-10-15T05:31:26.271Z,32.05
2022-10-15T05:32:07.015Z,27.80
2022-10-15T05:32:38.820Z,27.40
2022-10-15T05:33:15.474Z,33.50
2022-10-15T05:33:48.594Z,31.17
2022-10-15T05:34:20.627Z,30.90
2022-10-15T05:35:00.206Z,29.98
2022-10-15T05:35:44.249Z,34.00
2022-10-15T05:36:24.458Z,31.27
2022-10-15T05:37:00.008Z,33.25
2022-10-15T05:37:31.817Z,29.80
2022-10-15T05:38:04.792Z,32.17
2022-10-15T05:38:36.838Z,36.35
2022-10-15T05:39:10.685Z,32.53
2022-10-15T05:39:46.535Z,31.85
2022-10-15T05:40:21.178Z,27.63
2022-10-15T05:41:06.272Z,27.30
2022-10-15T05:41:38.051Z,27.08
2022-10-15T05:42:10.468Z,34.83
2022-10-15T05:43:25.619Z,27.65
2022-10-15T05:43:58.639Z,28.95
2022-10-15T05:44:33.273Z,29.42
2022-10-15T05:45:05.297Z,30.83
2022-10-15T05:45:36.903Z,30.42
2022-10-15T05:46:10.715Z,31.58
2022-10-15T05:46:42.707Z,28.27
2022-10-15T05:47:18.150Z,30.30
2022-10-15T05:52:13.822Z,32.05
2022-10-15T05:53:07.976Z,28.75
2022-10-15T05:53:46.561Z,29.13
2022-10-15T05:54:18.181Z,35.67
2022-10-15T05:54:49.868Z,35.10
2022-10-15T05:55:22.530Z,31.17
2022-10-15T05:55:54.373Z,29.27
2022-10-15T05:56:31.080Z,28.40
2022-10-15T05:57:02.812Z,30.02
2022-10-15T05:57:34.538Z,30.25
2022-10-15T05:58:08.132Z,29.13
2022-10-15T05:58:40.693Z,29.05
2022-10-15T05:59:13.316Z,32.58
2022-10-15T05:59:45.642Z,32.40
2022-10-15T06:00:18.222Z,37.63
2022-10-15T06:00:58.300Z,34.35
2022-10-15T06:01:29.967Z,28.85
2022-10-15T06:02:01.723Z,32.40
2022-10-15T06:02:33.754Z,30.63
2022-10-15T06:03:06.164Z,31.25
2022-10-15T06:03:38.638Z,27.90
2022-10-15T06:04:10.416Z,32.40
2022-10-15T06:04:43.775Z,31.38
2022-10-15T06:05:15.665Z,31.42
2022-10-15T06:05:47.322Z,34.13
2022-10-15T06:06:21.675Z,32.42
2022-10-15T06:06:53.302Z,33.67
2022-10-15T06:07:25.128Z,33.95
2022-10-15T06:07:57.497Z,34.25
2022-10-15T06:08:30.101Z,32.55
2022-10-15T06:09:04.482Z,40.47
2022-10-15T06:09:36.112Z,33.97
2022-10-15T06:10:07.916Z,35.97
2022-10-15T06:10:39.997Z,37.55
2022-10-15T06:11:11.702Z,34.85
2022-10-15T06:11:43.257Z,36.03
2022-10-15T06:12:15.528Z,37.78
2022-10-15T06:12:50.811Z,35.40
2022-10-15T06:13:22.795Z,39.45
2022-10-15T06:13:54.534Z,40.90
2022-10-15T06:14:26.824Z,44.35
2022-10-15T06:14:58.322Z,38.60
2022-10-15T06:15:29.979Z,41.00
2022-10-15T06:16:03.418Z,41.75
2022-10-15T06:16:34.961Z,38.95
2022-10-15T06:17:06.647Z,40.83
2022-10-15T06:17:38.307Z,44.25
2022-10-15T06:18:10.909Z,37.95
2022-10-15T06:18:42.386Z,46.63
2022-10-15T06:19:15.216Z,41.47
2022-10-15T06:19:46.700Z,49.78
2022-10-15T06:20:18.644Z,40.88
2022-10-15T06:20:53.284Z,45.00
2022-10-15T06:21:25.155Z,40.00
2022-10-15T06:21:56.632Z,43.33
2022-10-15T06:22:31.163Z,42.58
2022-10-15T06:23:05.001Z,40.22
2022-10-15T06:23:36.933Z,41.10
2022-10-15T06:24:10.063Z,41.70
2022-10-15T06:24:41.970Z,40.70
2022-10-15T06:25:14.793Z,46.90
2022-10-15T06:25:46.504Z,43.38
2022-10-15T06:26:18.126Z,48.38
2022-10-15T06:26:52.747Z,44.47
2022-10-15T06:27:24.497Z,45.40
2022-10-15T06:27:56.246Z,47.90
2022-10-15T06:28:32.262Z,48.47
2022-10-15T06:29:03.934Z,47.45
2022-10-15T06:29:35.562Z,52.42
2022-10-15T06:30:08.671Z,49.72
2022-10-15T06:30:40.223Z,54.85
2022-10-15T06:31:12.335Z,49.63
2022-10-15T06:31:43.894Z,50.47
2022-10-15T06:32:15.371Z,49.88
2022-10-15T06:32:51.241Z,48.72
2022-10-15T06:33:22.705Z,48.88
2022-10-15T06:33:54.179Z,52.85
2022-10-15T06:34:25.662Z,50.17
2022-10-15T06:34:57.144Z,52.80
2022-10-15T06:35:33.395Z,52.35
2022-10-15T06:36:07.255Z,50.40
2022-10-15T06:36:38.725Z,52.50
2022-10-15T06:37:10.420Z,59.97
2022-10-15T06:37:41.867Z,51.60
2022-10-15T06:38:13.313Z,59.17
2022-10-15T06:38:47.519Z,56.35
2022-10-15T06:39:19.135Z,57.92
2022-10-15T06:39:50.707Z,58.55
2022-10-15T06:40:22.153Z,61.25
2022-10-15T06:40:53.644Z,56.42
2022-10-15T06:41:25.297Z,53.22
2022-10-15T06:41:57.019Z,56.22
2022-10-15T06:42:34.819Z,57.45
2022-10-15T06:43:10.866Z,64.25
2022-10-15T06:43:42.748Z,60.83
2022-10-15T06:44:14.492Z,60.92
2022-10-15T06:44:45.938Z,63.90
2022-10-15T06:45:21.888Z,60.80
2022-10-15T06:45:53.514Z,59.25
2022-10-15T06:46:25.007Z,67.90
2022-10-15T06:46:56.728Z,63.67
2022-10-15T06:47:28.186Z,59.47
2022-10-15T06:47:59.639Z,63.42
2022-10-15T06:48:31.312Z,68.82
2022-10-15T06:49:02.915Z,64.63
2022-10-15T06:49:34.371Z,59.97
2022-10-15T06:50:06.763Z,64.43
2022-10-15T06:50:39.215Z,55.88
2022-10-15T06:51:11.267Z,66.20
2022-10-15T06:51:42.770Z,70.78
2022-10-15T06:52:14.235Z,71.32
2022-10-15T06:52:45.779Z,66.85
2022-10-15T06:53:17.583Z,69.82
2022-10-15T06:53:49.083Z,63.83
2022-10-15T06:54:20.599Z,64.05
2022-10-15T06:54:52.420Z,60.55
2022-10-15T06:55:26.312Z,65.60
2022-10-15T06:55:58.551Z,63.50
2022-10-15T06:56:30.006Z,68.55
2022-10-15T06:57:01.456Z,79.07
2022-10-15T06:57:32.946Z,60.40
2022-10-15T06:58:04.398Z,68.63
2022-10-15T06:58:35.867Z,70.05
2022-10-15T06:59:07.444Z,69.45
2022-10-15T06:59:41.338Z,64.03
2022-10-15T07:00:13.980Z,66.47
2022-10-15T07:00:45.428Z,67.97
2022-10-15T07:01:17.262Z,68.88
2022-10-15T07:01:48.697Z,76.65
2022-10-15T07:02:20.497Z,67.55
2022-10-15T07:02:52.659Z,67.68
2022-10-15T07:03:24.196Z,75.38
2022-10-15T07:03:55.685Z,77.78
2022-10-15T07:04:27.186Z,78.95
2022-10-15T07:04:58.647Z,68.25
2022-10-15T07:05:30.135Z,69.25
2022-10-15T07:06:03.556Z,76.28
2022-10-15T07:06:35.750Z,63.75
2022-10-15T07:07:07.308Z,67.80
2022-10-15T07:07:39.072Z,65.10
2022-10-15T07:08:11.584Z,72.85
2022-10-15T07:08:45.873Z,67.57
2022-10-15T07:09:17.439Z,75.93
2022-10-15T07:09:53.116Z,76.32
2022-10-15T07:10:25.973Z,69.07
2022-10-15T07:10:57.640Z,78.63
2022-10-15T07:11:30.557Z,67.53
2022-10-15T07:12:02.160Z,74.28
2022-10-15T07:12:34.113Z,79.13
2022-10-15T07:13:05.575Z,68.10
2022-10-15T07:13:37.805Z,81.78
2022-10-15T07:14:10.258Z,71.18
2022-10-15T07:14:42.565Z,74.53
2022-10-15T07:15:14.581Z,69.70
2022-10-15T07:15:47.326Z,77.78
2022-10-15T07:16:18.810Z,68.80
2022-10-15T07:16:50.307Z,73.43
2022-10-15T07:17:21.783Z,72.88
2022-10-15T07:18:01.245Z,75.53
2022-10-15T07:18:33.776Z,70.30
2022-10-15T07:19:05.768Z,71.43
2022-10-15T07:19:37.282Z,72.30
2022-10-15T07:20:08.938Z,71.45
2022-10-15T07:20:40.653Z,70.30
2022-10-15T07:21:12.144Z,67.13
2022-10-15T07:21:43.710Z,68.90
2022-10-15T07:22:16.084Z,75.05
2022-10-15T07:22:48.756Z,76.28
2022-10-15T07:23:24.083Z,70.75
2022-10-15T07:24:00.877Z,68.13
2022-10-15T07:24:32.974Z,66.75
2022-10-15T07:25:04.814Z,62.10
2022-10-15T07:25:36.379Z,71.63
2022-10-15T07:26:07.951Z,72.72
2022-10-15T07:26:39.536Z,70.80
2022-10-15T07:27:18.643Z,70.57
2022-10-15T07:27:50.922Z,70.20
2022-10-15T07:28:22.430Z,70.60
2022-10-15T07:28:53.948Z,72.03
2022-10-15T07:29:25.454Z,69.28
2022-10-15T07:29:56.968Z,68.53
2022-10-15T07:30:28.754Z,68.50
2022-10-15T07:31:02.387Z,61.92
2022-10-15T07:31:34.571Z,65.35
2022-10-15T07:32:06.606Z,70.30
2022-10-15T07:32:38.269Z,67.45
2022-10-15T07:33:10.043Z,76.53
2022-10-15T07:33:42.771Z,70.00
2022-10-15T07:34:14.283Z,66.18
2022-10-15T07:34:45.793Z,69.88
2022-10-15T07:35:17.397Z,64.65
2022-10-15T07:35:48.923Z,60.20
2022-10-15T07:36:20.829Z,69.20
2022-10-15T07:36:52.347Z,58.95
2022-10-15T07:37:23.818Z,61.08
2022-10-15T07:37:55.439Z,63.65
2022-10-15T07:38:26.934Z,63.42
2022-10-15T07:38:58.401Z,61.22
2022-10-15T07:39:29.910Z,60.03
2022-10-15T07:40:01.772Z,62.47
2022-10-15T07:40:33.285Z,59.97
2022-10-15T07:41:05.132Z,63.15
2022-10-15T07:41:45.728Z,64.72
2022-10-15T07:42:17.190Z,62.60
2022-10-15T07:42:55.889Z,57.42
2022-10-15T07:43:30.623Z,60.10
2022-10-15T07:44:02.526Z,66.63
2022-10-15T07:44:34.003Z,66.30
2022-10-15T07:45:06.056Z,59.10
2022-10-15T07:45:37.591Z,69.80
2022-10-15T07:46:09.370Z,60.42
2022-10-15T07:46:40.823Z,60.88
2022-10-15T07:47:12.339Z,62.92
2022-10-15T07:47:43.854Z,65.38
2022-10-15T07:48:19.984Z,65.50
2022-10-15T07:48:51.482Z,56.05
2022-10-15T07:49:22.963Z,53.35
2022-10-15T07:49:54.590Z,56.35
2022-10-15T07:50:29.200Z,57.85
2022-10-15T07:51:07.129Z,56.42
2022-10-15T07:51:38.727Z,55.28
2022-10-15T07:52:10.321Z,66.93
2022-10-15T07:52:41.994Z,56.47
2022-10-15T07:53:13.594Z,55.35
2022-10-15T07:53:47.362Z,59.38
2022-10-15T07:54:18.877Z,59.20
2022-10-15T07:54:50.314Z,54.95
2022-10-15T07:55:24.079Z,53.45
2022-10-15T07:56:01.844Z,59.63
2022-10-15T07:56:36.991Z,53.60
2022-10-15T07:57:09.177Z,49.75
2022-10-15T07:57:40.786Z,50.67
2022-10-15T07:58:12.279Z,61.40
2022-10-15T07:58:51.304Z,56.83
2022-10-15T07:59:22.819Z,59.42
2022-10-15T07:59:54.430Z,51.25
2022-10-15T08:00:26.048Z,64.50
2022-10-15T08:01:05.356Z,53.10
2022-10-15T08:01:36.843Z,62.70
2022-10-15T08:02:14.940Z,53.78
2022-10-15T08:02:46.961Z,56.10
2022-10-15T08:03:23.862Z,50.65
2022-10-15T08:03:55.467Z,49.65
2022-10-15T08:04:29.523Z,54.33
2022-10-15T08:05:00.965Z,50.00
2022-10-15T08:05:33.579Z,50.35
2022-10-15T08:06:07.404Z,53.80
2022-10-15T08:06:38.847Z,51.33
2022-10-15T08:07:10.616Z,50.10
2022-10-15T08:07:42.090Z,61.53
2022-10-15T08:08:15.476Z,50.45
2022-10-15T08:08:47.787Z,48.90
2022-10-15T08:09:19.264Z,54.40
2022-10-15T08:09:51.191Z,48.67
2022-10-15T08:10:22.862Z,41.20
2022-10-15T08:10:54.406Z,49.92
2022-10-15T08:11:25.888Z,45.97
2022-10-15T08:11:57.425Z,50.75
2022-10-15T08:12:28.943Z,52.35
2022-10-15T08:13:00.376Z,46.80
2022-10-15T08:13:31.845Z,47.85
2022-10-15T08:14:04.074Z,48.38
2022-10-15T08:14:36.586Z,46.58
2022-10-15T08:15:08.582Z,46.53
2022-10-15T08:15:41.180Z,44.83
2022-10-15T08:16:14.703Z,52.20
2022-10-15T08:16:53.627Z,46.95
2022-10-15T08:17:25.135Z,44.20
2022-10-15T08:17:56.640Z,48.38
2022-10-15T08:18:28.390Z,46.97
2022-10-15T08:19:00.648Z,47.67
2022-10-15T08:19:32.420Z,54.42
2022-10-15T08:20:04.498Z,46.03
2022-10-15T08:20:37.546Z,46.03
2022-10-15T08:21:10.795Z,44.35
2022-10-15T08:21:43.953Z,52.42
2022-10-15T08:22:18.162Z,47.53
2022-10-15T08:22:49.686Z,51.45
2022-10-15T08:23:21.151Z,51.60
2022-10-15T08:23:52.688Z,43.85
2022-10-15T08:24:30.645Z,49.67
2022-10-15T08:25:02.338Z,41.72
2022-10-15T08:25:33.848Z,49.22
2022-10-15T08:26:05.916Z,42.75